Terminal Aerodrome Forecast
Issued by NWS

Home | Current Version | Previous Version | Text Only | Print | Product List | Glossary On
Versions: 1 2 3 4 5 6 7 8 9 10 11 12 13 14 15 16 17
000
FTUS43 KAPX 221700
TAFAPN
TAF
KAPN 221726Z 2218/2318 18011G19KT P6SM SCT060 BKN180
     FM222200 20009KT P6SM VCTS BKN050CB
     FM230200 29009G18KT P6SM SCT030
     FM230500 30010G19KT P6SM OVC030
     FM231300 35009G15KT P6SM SCT050=

USA.gov is the U.S. government's official web portal to all federal, state and local government web resources and services.